sensor_id;sensor_type;location;lat;lon;timestamp;temperature;humidity
14014;DHT22;49110;52.584;13.408;2022-12-08T00:00:22;3.90;99.90
14014;DHT22;49110;52.584;13.408;2022-12-08T00:01:25;3.90;99.90
14014;DHT22;49110;52.584;13.408;2022-12-08T00:02:26;4.00;99.90
14014;DHT22;49110;52.584;13.408;2022-12-08T00:03:26;3.90;99.90
14014;DHT22;49110;52.584;13.408;2022-12-08T00:04:27;3.90;99.90
14014;DHT22;49110;52.584;13.408;2022-12-08T00:05:27;3.90;99.90
14014;DHT22;49110;52.584;13.408;2022-12-08T00:06:46;3.90;99.90
14014;DHT22;49110;52.584;13.408;2022-12-08T00:08:07;4.00;99.90
14014;DHT22;49110;52.584;13.408;2022-12-08T00:09:31;3.90;99.90
14014;DHT22;49110;52.584;13.408;2022-12-08T00:10:32;3.90;99.90
14014;DHT22;49110;52.584;13.408;2022-12-08T00:11:33;3.90;99.90
14014;DHT22;49110;52.584;13.408;2022-12-08T00:12:33;3.90;99.90
14014;DHT22;49110;52.584;13.408;2022-12-08T00:13:34;3.90;99.90
14014;DHT22;49110;52.584;13.408;2022-12-08T00:14:40;3.90;99.90
14014;DHT22;49110;52.584;13.408;2022-12-08T00:15:40;3.90;99.90
14014;DHT22;49110;52.584;13.408;2022-12-08T00:16:41;3.90;99.90
14014;DHT22;49110;52.584;13.408;2022-12-08T00:17:41;3.80;99.90
14014;DHT22;49110;52.584;13.408;2022-12-08T00:18:42;3.90;99.90
14014;DHT22;49110;52.584;13.408;2022-12-08T00:19:43;3.90;99.90
14014;DHT22;49110;52.584;13.408;2022-12-08T00:20:43;3.90;99.90
14014;DHT22;49110;52.584;13.408;2022-12-08T00:21:44;3.90;99.90
14014;DHT22;49110;52.584;13.408;2022-12-08T00:22:44;3.90;99.90
14014;DHT22;49110;52.584;13.408;2022-12-08T00:23:45;3.90;99.90
14014;DHT22;49110;52.584;13.408;2022-12-08T00:24:45;3.90;99.90
14014;DHT22;49110;52.584;13.408;2022-12-08T00:25:46;3.90;99.90
14014;DHT22;49110;52.584;13.408;2022-12-08T00:26:47;3.90;99.90
14014;DHT22;49110;52.584;13.408;2022-12-08T00:27:47;3.90;99.90
14014;DHT22;49110;52.584;13.408;2022-12-08T00:28:48;3.90;99.90
14014;DHT22;49110;52.584;13.408;2022-12-08T00:29:48;3.90;99.90
14014;DHT22;49110;52.584;13.408;2022-12-08T00:30:49;3.90;99.90
14014;DHT22;49110;52.584;13.408;2022-12-08T00:31:49;3.90;99.90
14014;DHT22;49110;52.584;13.408;2022-12-08T00:32:50;3.80;99.90
14014;DHT22;49110;52.584;13.408;2022-12-08T00:33:50;3.90;99.90
14014;DHT22;49110;52.584;13.408;2022-12-08T00:34:51;3.90;99.90
14014;DHT22;49110;52.584;13.408;2022-12-08T00:35:51;3.90;99.90
14014;DHT22;49110;52.584;13.408;2022-12-08T00:36:52;3.90;99.90
14014;DHT22;49110;52.584;13.408;2022-12-08T00:37:52;3.90;99.90
14014;DHT22;49110;52.584;13.408;2022-12-08T00:38:53;3.90;99.90
14014;DHT22;49110;52.584;13.408;2022-12-08T00:39:53;3.90;99.90
14014;DHT22;49110;52.584;13.408;2022-12-08T00:40:54;3.90;99.90
14014;DHT22;49110;52.584;13.408;2022-12-08T00:41:54;3.90;99.90
14014;DHT22;49110;52.584;13.408;2022-12-08T00:43:13;3.90;99.90
14014;DHT22;49110;52.584;13.408;2022-12-08T00:44:16;3.90;99.90
14014;DHT22;49110;52.584;13.408;2022-12-08T00:45:18;3.90;99.90
14014;DHT22;49110;52.584;13.408;2022-12-08T00:46:18;3.90;99.90
14014;DHT22;49110;52.584;13.408;2022-12-08T00:47:19;3.90;99.90
14014;DHT22;49110;52.584;13.408;2022-12-08T00:48:19;3.90;99.90
14014;DHT22;49110;52.584;13.408;2022-12-08T00:49:20;3.90;99.90
14014;DHT22;49110;52.584;13.408;2022-12-08T00:50:21;3.90;99.90
14014;DHT22;49110;52.584;13.408;2022-12-08T00:51:21;3.90;99.90
14014;DHT22;49110;52.584;13.408;2022-12-08T00:52:22;4.00;99.90
14014;DHT22;49110;52.584;13.408;2022-12-08T00:53:22;4.00;99.90
14014;DHT22;49110;52.584;13.408;2022-12-08T00:54:23;4.00;99.90
14014;DHT22;49110;52.584;13.408;2022-12-08T00:55:23;4.00;99.90
14014;DHT22;49110;52.584;13.408;2022-12-08T00:56:24;4.00;99.90
14014;DHT22;49110;52.584;13.408;2022-12-08T00:57:25;4.00;99.90
14014;DHT22;49110;52.584;13.408;2022-12-08T00:58:25;4.00;99.90
14014;DHT22;49110;52.584;13.408;2022-12-08T00:59:26;4.00;99.90
14014;DHT22;49110;52.584;13.408;2022-12-08T01:00:26;4.10;99.90
14014;DHT22;49110;52.584;13.408;2022-12-08T01:01:27;4.00;99.90
14014;DHT22;49110;52.584;13.408;2022-12-08T01:02:27;4.10;99.90
14014;DHT22;49110;52.584;13.408;2022-12-08T01:03:28;4.10;99.90
14014;DHT22;49110;52.584;13.408;2022-12-08T01:04:28;4.10;99.90
14014;DHT22;49110;52.584;13.408;2022-12-08T01:05:29;4.10;99.90
14014;DHT22;49110;52.584;13.408;2022-12-08T01:06:29;4.10;99.90
14014;DHT22;49110;52.584;13.408;2022-12-08T01:07:29;4.10;99.90
14014;DHT22;49110;52.584;13.408;2022-12-08T01:08:30;4.10;99.90
14014;DHT22;49110;52.584;13.408;2022-12-08T01:09:30;4.10;99.90
14014;DHT22;49110;52.584;13.408;2022-12-08T01:10:34;4.10;99.90
14014;DHT22;49110;52.584;13.408;2022-12-08T01:11:35;4.10;99.90
14014;DHT22;49110;52.584;13.408;2022-12-08T01:12:36;4.10;99.90
14014;DHT22;49110;52.584;13.408;2022-12-08T01:13:37;4.10;99.90
14014;DHT22;49110;52.584;13.408;2022-12-08T01:14:37;4.10;99.90
14014;DHT22;49110;52.584;13.408;2022-12-08T01:15:38;4.10;99.90
14014;DHT22;49110;52.584;13.408;2022-12-08T01:16:38;4.20;99.90
14014;DHT22;49110;52.584;13.408;2022-12-08T01:17:40;4.10;99.90
14014;DHT22;49110;52.584;13.408;2022-12-08T01:18:41;4.20;99.90
14014;DHT22;49110;52.584;13.408;2022-12-08T01:19:41;4.20;99.90
14014;DHT22;49110;52.584;13.408;2022-12-08T01:20:42;4.10;99.90
14014;DHT22;49110;52.584;13.408;2022-12-08T01:21:43;4.10;99.90
14014;DHT22;49110;52.584;13.408;2022-12-08T01:22:44;4.20;99.90
14014;DHT22;49110;52.584;13.408;2022-12-08T01:23:44;4.20;99.90
14014;DHT22;49110;52.584;13.408;2022-12-08T01:24:45;4.20;99.90
14014;DHT22;49110;52.584;13.408;2022-12-08T01:25:45;4.20;99.90
14014;DHT22;49110;52.584;13.408;2022-12-08T01:26:47;4.10;99.90
14014;DHT22;49110;52.584;13.408;2022-12-08T01:27:51;4.20;99.90
14014;DHT22;49110;52.584;13.408;2022-12-08T01:28:51;4.20;99.90
14014;DHT22;49110;52.584;13.408;2022-12-08T01:29:52;4.20;99.90
14014;DHT22;49110;52.584;13.408;2022-12-08T01:30:52;4.20;99.90
14014;DHT22;49110;52.584;13.408;2022-12-08T01:31:53;4.20;99.90
14014;DHT22;49110;52.584;13.408;2022-12-08T01:32:53;4.20;99.90
14014;DHT22;49110;52.584;13.408;2022-12-08T01:33:54;4.20;99.90
14014;DHT22;49110;52.584;13.408;2022-12-08T01:34:54;4.20;99.90
14014;DHT22;49110;52.584;13.408;2022-12-08T01:35:55;4.20;99.90
14014;DHT22;49110;52.584;13.408;2022-12-08T01:36:55;4.20;99.90
14014;DHT22;49110;52.584;13.408;2022-12-08T01:37:56;4.20;99.90
14014;DHT22;49110;52.584;13.408;2022-12-08T01:38:59;4.20;99.90
14014;DHT22;49110;52.584;13.408;2022-12-08T01:40:00;4.20;99.90
14014;DHT22;49110;52.584;13.408;2022-12-08T01:41:00;4.20;99.90
14014;DHT22;49110;52.584;13.408;2022-12-08T01:42:01;4.20;99.90
14014;DHT22;49110;52.584;13.408;2022-12-08T01:43:01;4.20;99.90
14014;DHT22;49110;52.584;13.408;2022-12-08T01:45:20;4.20;99.90
14014;DHT22;49110;52.584;13.408;2022-12-08T01:46:22;4.20;99.90
14014;DHT22;49110;52.584;13.408;2022-12-08T01:47:28;4.20;99.90
14014;DHT22;49110;52.584;13.408;2022-12-08T01:48:30;4.30;99.90
14014;DHT22;49110;52.584;13.408;2022-12-08T01:49:33;4.20;99.90
14014;DHT22;49110;52.584;13.408;2022-12-08T01:50:37;4.10;99.90
14014;DHT22;49110;52.584;13.408;2022-12-08T01:51:57;4.10;99.90
14014;DHT22;49110;52.584;13.408;2022-12-08T01:53:08;4.00;99.90
14014;DHT22;49110;52.584;13.408;2022-12-08T01:54:11;4.10;99.90
14014;DHT22;49110;52.584;13.408;2022-12-08T01:55:35;4.10;99.90
14014;DHT22;49110;52.584;13.408;2022-12-08T01:57:23;4.10;99.90
14014;DHT22;49110;52.584;13.408;2022-12-08T01:58:18;4.10;99.90
14014;DHT22;49110;52.584;13.408;2022-12-08T01:59:20;4.10;99.90
14014;DHT22;49110;52.584;13.408;2022-12-08T02:00:21;4.10;99.90
14014;DHT22;49110;52.584;13.408;2022-12-08T02:01:22;4.10;99.90
14014;DHT22;49110;52.584;13.408;2022-12-08T02:02:27;4.20;99.90
14014;DHT22;49110;52.584;13.408;2022-12-08T02:03:49;4.10;99.90
14014;DHT22;49110;52.584;13.408;2022-12-08T02:04:50;4.10;99.90
14014;DHT22;49110;52.584;13.408;2022-12-08T02:05:51;4.10;99.90
14014;DHT22;49110;52.584;13.408;2022-12-08T02:06:52;4.10;99.90
14014;DHT22;49110;52.584;13.408;2022-12-08T02:07:54;4.10;99.90
14014;DHT22;49110;52.584;13.408;2022-12-08T02:08:56;4.20;99.90
14014;DHT22;49110;52.584;13.408;2022-12-08T02:09:58;4.20;99.90
14014;DHT22;49110;52.584;13.408;2022-12-08T02:10:59;4.20;99.90
14014;DHT22;49110;52.584;13.408;2022-12-08T02:12:00;4.20;99.90
14014;DHT22;49110;52.584;13.408;2022-12-08T02:13:02;4.20;99.90
14014;DHT22;49110;52.584;13.408;2022-12-08T02:14:05;4.20;99.90
14014;DHT22;49110;52.584;13.408;2022-12-08T02:15:07;4.20;99.90
14014;DHT22;49110;52.584;13.408;2022-12-08T02:17:49;4.20;99.90
14014;DHT22;49110;52.584;13.408;2022-12-08T02:20:18;4.20;99.90
14014;DHT22;49110;52.584;13.408;2022-12-08T02:23:58;4.20;99.90
14014;DHT22;49110;52.584;13.408;2022-12-08T02:26:16;4.20;99.90
14014;DHT22;49110;52.584;13.408;2022-12-08T02:27:54;4.20;99.90
14014;DHT22;49110;52.584;13.408;2022-12-08T02:30:23;4.20;99.90
14014;DHT22;49110;52.584;13.408;2022-12-08T02:33:14;4.20;99.90
14014;DHT22;49110;52.584;13.408;2022-12-08T02:34:43;4.20;99.90
14014;DHT22;49110;52.584;13.408;2022-12-08T02:36:02;4.30;99.90
14014;DHT22;49110;52.584;13.408;2022-12-08T02:37:16;4.20;99.90
14014;DHT22;49110;52.584;13.408;2022-12-08T02:40:02;4.20;99.90
14014;DHT22;49110;52.584;13.408;2022-12-08T02:41:28;4.20;99.90
14014;DHT22;49110;52.584;13.408;2022-12-08T02:42:39;4.20;99.90
14014;DHT22;49110;52.584;13.408;2022-12-08T02:43:44;4.20;99.90
14014;DHT22;49110;52.584;13.408;2022-12-08T02:45:00;4.20;99.90
14014;DHT22;49110;52.584;13.408;2022-12-08T02:46:06;4.20;99.90
14014;DHT22;49110;52.584;13.408;2022-12-08T02:47:14;4.20;99.90
14014;DHT22;49110;52.584;13.408;2022-12-08T02:48:16;4.20;99.90
14014;DHT22;49110;52.584;13.408;2022-12-08T02:49:16;4.20;99.90
14014;DHT22;49110;52.584;13.408;2022-12-08T02:50:17;4.20;99.90
14014;DHT22;49110;52.584;13.408;2022-12-08T02:51:18;4.10;99.90
14014;DHT22;49110;52.584;13.408;2022-12-08T02:53:19;4.00;99.90
14014;DHT22;49110;52.584;13.408;2022-12-08T02:54:20;4.00;99.90
14014;DHT22;49110;52.584;13.408;2022-12-08T02:55:56;4.00;99.90
14014;DHT22;49110;52.584;13.408;2022-12-08T02:57:30;3.90;99.90
14014;DHT22;49110;52.584;13.408;2022-12-08T03:00:13;3.90;99.90
14014;DHT22;49110;52.584;13.408;2022-12-08T03:01:52;3.80;99.90
14014;DHT22;49110;52.584;13.408;2022-12-08T03:03:24;3.90;99.90
14014;DHT22;49110;52.584;13.408;2022-12-08T03:06:30;3.80;99.90
14014;DHT22;49110;52.584;13.408;2022-12-08T03:07:59;3.80;99.90
14014;DHT22;49110;52.584;13.408;2022-12-08T03:10:33;3.70;99.90
14014;DHT22;49110;52.584;13.408;2022-12-08T03:11:49;3.70;99.90
14014;DHT22;49110;52.584;13.408;2022-12-08T03:13:03;3.80;99.90
14014;DHT22;49110;52.584;13.408;2022-12-08T03:14:06;3.80;99.90
14014;DHT22;49110;52.584;13.408;2022-12-08T03:15:10;3.80;99.90
14014;DHT22;49110;52.584;13.408;2022-12-08T03:16:15;3.80;99.90
14014;DHT22;49110;52.584;13.408;2022-12-08T03:17:20;3.80;99.90
14014;DHT22;49110;52.584;13.408;2022-12-08T03:18:25;3.80;99.90
14014;DHT22;49110;52.584;13.408;2022-12-08T03:19:31;3.70;99.90
14014;DHT22;49110;52.584;13.408;2022-12-08T03:20:34;3.70;99.90
14014;DHT22;49110;52.584;13.408;2022-12-08T03:21:35;3.60;99.90
14014;DHT22;49110;52.584;13.408;2022-12-08T03:22:38;3.70;99.90
14014;DHT22;49110;52.584;13.408;2022-12-08T03:23:41;3.80;99.90
14014;DHT22;49110;52.584;13.408;2022-12-08T03:24:44;3.80;99.90
14014;DHT22;49110;52.584;13.408;2022-12-08T03:25:55;3.70;99.90
14014;DHT22;49110;52.584;13.408;2022-12-08T03:27:03;3.70;99.90
14014;DHT22;49110;52.584;13.408;2022-12-08T03:28:05;3.70;99.90
14014;DHT22;49110;52.584;13.408;2022-12-08T03:29:05;3.70;99.90
14014;DHT22;49110;52.584;13.408;2022-12-08T03:30:09;3.60;99.90
14014;DHT22;49110;52.584;13.408;2022-12-08T03:31:12;3.60;99.90
14014;DHT22;49110;52.584;13.408;2022-12-08T03:32:25;3.70;99.90
14014;DHT22;49110;52.584;13.408;2022-12-08T03:33:30;3.70;99.90
14014;DHT22;49110;52.584;13.408;2022-12-08T03:34:32;3.70;99.90
14014;DHT22;49110;52.584;13.408;2022-12-08T03:35:36;3.70;99.90
14014;DHT22;49110;52.584;13.408;2022-12-08T03:36:38;3.70;99.90
14014;DHT22;49110;52.584;13.408;2022-12-08T03:37:39;3.80;99.90
14014;DHT22;49110;52.584;13.408;2022-12-08T03:38:42;3.70;99.90
14014;DHT22;49110;52.584;13.408;2022-12-08T03:39:43;3.70;99.90
14014;DHT22;49110;52.584;13.408;2022-12-08T03:40:44;3.60;99.90
14014;DHT22;49110;52.584;13.408;2022-12-08T03:42:04;3.60;99.90
14014;DHT22;49110;52.584;13.408;2022-12-08T03:43:05;3.60;99.90
14014;DHT22;49110;52.584;13.408;2022-12-08T03:44:06;3.70;99.90
14014;DHT22;49110;52.584;13.408;2022-12-08T03:45:07;3.80;99.90
14014;DHT22;49110;52.584;13.408;2022-12-08T03:46:07;3.80;99.90
14014;DHT22;49110;52.584;13.408;2022-12-08T03:47:08;3.80;99.90
14014;DHT22;49110;52.584;13.408;2022-12-08T03:48:08;3.90;99.90
14014;DHT22;49110;52.584;13.408;2022-12-08T03:49:09;3.80;99.90
14014;DHT22;49110;52.584;13.408;2022-12-08T03:50:10;3.80;99.90
14014;DHT22;49110;52.584;13.408;2022-12-08T03:51:11;3.90;99.90
14014;DHT22;49110;52.584;13.408;2022-12-08T03:52:11;3.90;99.90
14014;DHT22;49110;52.584;13.408;2022-12-08T03:53:12;3.90;99.90
14014;DHT22;49110;52.584;13.408;2022-12-08T03:54:12;4.00;99.90
14014;DHT22;49110;52.584;13.408;2022-12-08T03:55:13;4.00;99.90
14014;DHT22;49110;52.584;13.408;2022-12-08T03:56:31;4.00;99.90
14014;DHT22;49110;52.584;13.408;2022-12-08T03:57:32;4.00;99.90
14014;DHT22;49110;52.584;13.408;2022-12-08T03:58:33;4.00;99.90
14014;DHT22;49110;52.584;13.408;2022-12-08T03:59:34;4.10;99.90
14014;DHT22;49110;52.584;13.408;2022-12-08T04:00:34;4.10;99.90
14014;DHT22;49110;52.584;13.408;2022-12-08T04:01:35;4.10;99.90
14014;DHT22;49110;52.584;13.408;2022-12-08T04:02:35;4.10;99.90
14014;DHT22;49110;52.584;13.408;2022-12-08T04:03:36;4.10;99.90
14014;DHT22;49110;52.584;13.408;2022-12-08T04:04:36;4.20;99.90
14014;DHT22;49110;52.584;13.408;2022-12-08T04:05:37;4.10;99.90
14014;DHT22;49110;52.584;13.408;2022-12-08T04:06:37;4.10;99.90
14014;DHT22;49110;52.584;13.408;2022-12-08T04:07:38;4.10;99.90
14014;DHT22;49110;52.584;13.408;2022-12-08T04:08:38;4.10;99.90
14014;DHT22;49110;52.584;13.408;2022-12-08T04:09:39;4.10;99.90
14014;DHT22;49110;52.584;13.408;2022-12-08T04:10:41;4.10;99.90
14014;DHT22;49110;52.584;13.408;2022-12-08T04:11:41;4.10;99.90
14014;DHT22;49110;52.584;13.408;2022-12-08T04:12:42;4.10;99.90
14014;DHT22;49110;52.584;13.408;2022-12-08T04:13:43;4.00;99.90
14014;DHT22;49110;52.584;13.408;2022-12-08T04:14:43;4.10;99.90
14014;DHT22;49110;52.584;13.408;2022-12-08T04:15:45;4.10;99.90
14014;DHT22;49110;52.584;13.408;2022-12-08T04:16:45;4.10;99.90
14014;DHT22;49110;52.584;13.408;2022-12-08T04:17:46;4.20;99.90
14014;DHT22;49110;52.584;13.408;2022-12-08T04:18:46;4.20;99.90
14014;DHT22;49110;52.584;13.408;2022-12-08T04:19:47;4.20;99.90
14014;DHT22;49110;52.584;13.408;2022-12-08T04:20:47;4.20;99.90
14014;DHT22;49110;52.584;13.408;2022-12-08T04:21:48;4.20;99.90
14014;DHT22;49110;52.584;13.408;2022-12-08T04:22:48;4.20;99.90
14014;DHT22;49110;52.584;13.408;2022-12-08T04:23:49;4.20;99.90
14014;DHT22;49110;52.584;13.408;2022-12-08T04:24:49;4.20;99.90
14014;DHT22;49110;52.584;13.408;2022-12-08T04:25:51;4.20;99.90
14014;DHT22;49110;52.584;13.408;2022-12-08T04:26:52;4.20;99.90
14014;DHT22;49110;52.584;13.408;2022-12-08T04:27:52;4.30;99.90
14014;DHT22;49110;52.584;13.408;2022-12-08T04:28:53;4.20;99.90
14014;DHT22;49110;52.584;13.408;2022-12-08T04:29:53;4.20;99.90
14014;DHT22;49110;52.584;13.408;2022-12-08T04:30:54;4.20;99.90
14014;DHT22;49110;52.584;13.408;2022-12-08T04:31:55;4.20;99.90
14014;DHT22;49110;52.584;13.408;2022-12-08T04:32:55;4.30;99.90
14014;DHT22;49110;52.584;13.408;2022-12-08T04:33:56;4.20;99.90
14014;DHT22;49110;52.584;13.408;2022-12-08T04:34:56;4.20;99.90
14014;DHT22;49110;52.584;13.408;2022-12-08T04:35:57;4.20;99.90
14014;DHT22;49110;52.584;13.408;2022-12-08T04:36:57;4.30;99.90
14014;DHT22;49110;52.584;13.408;2022-12-08T04:37:58;4.20;99.90
14014;DHT22;49110;52.584;13.408;2022-12-08T04:38:59;4.30;99.90
14014;DHT22;49110;52.584;13.408;2022-12-08T04:39:59;4.30;99.90
14014;DHT22;49110;52.584;13.408;2022-12-08T04:41:00;4.30;99.90
14014;DHT22;49110;52.584;13.408;2022-12-08T04:42:01;4.30;99.90
14014;DHT22;49110;52.584;13.408;2022-12-08T04:43:01;4.30;99.90
14014;DHT22;49110;52.584;13.408;2022-12-08T04:44:02;4.30;99.90
14014;DHT22;49110;52.584;13.408;2022-12-08T04:45:03;4.30;99.90
14014;DHT22;49110;52.584;13.408;2022-12-08T04:46:07;4.20;99.90
14014;DHT22;49110;52.584;13.408;2022-12-08T04:47:08;4.30;99.90
14014;DHT22;49110;52.584;13.408;2022-12-08T04:48:09;4.20;99.90
14014;DHT22;49110;52.584;13.408;2022-12-08T04:49:11;4.30;99.90
14014;DHT22;49110;52.584;13.408;2022-12-08T04:50:12;4.30;99.90
14014;DHT22;49110;52.584;13.408;2022-12-08T04:51:17;4.20;99.90
14014;DHT22;49110;52.584;13.408;2022-12-08T04:52:18;4.30;99.90
14014;DHT22;49110;52.584;13.408;2022-12-08T04:53:18;4.20;99.90
14014;DHT22;49110;52.584;13.408;2022-12-08T04:54:20;4.30;99.90
14014;DHT22;49110;52.584;13.408;2022-12-08T04:55:21;4.20;99.90
14014;DHT22;49110;52.584;13.408;2022-12-08T04:56:21;4.20;99.90
14014;DHT22;49110;52.584;13.408;2022-12-08T04:57:22;4.20;99.90
14014;DHT22;49110;52.584;13.408;2022-12-08T04:58:22;4.20;99.90
14014;DHT22;49110;52.584;13.408;2022-12-08T04:59:23;4.20;99.90
14014;DHT22;49110;52.584;13.408;2022-12-08T05:00:23;4.20;99.90
14014;DHT22;49110;52.584;13.408;2022-12-08T05:01:24;4.20;99.90
14014;DHT22;49110;52.584;13.408;2022-12-08T05:02:24;4.20;99.90
14014;DHT22;49110;52.584;13.408;2022-12-08T05:03:25;4.30;99.90
14014;DHT22;49110;52.584;13.408;2022-12-08T05:04:25;4.30;99.90
14014;DHT22;49110;52.584;13.408;2022-12-08T05:05:26;4.30;99.90
14014;DHT22;49110;52.584;13.408;2022-12-08T05:06:26;4.30;99.90
14014;DHT22;49110;52.584;13.408;2022-12-08T05:07:27;4.30;99.90
14014;DHT22;49110;52.584;13.408;2022-12-08T05:08:27;4.20;99.90
14014;DHT22;49110;52.584;13.408;2022-12-08T05:09:28;4.20;99.90
14014;DHT22;49110;52.584;13.408;2022-12-08T05:10:29;4.30;99.90
14014;DHT22;49110;52.584;13.408;2022-12-08T05:11:29;4.30;99.90
14014;DHT22;49110;52.584;13.408;2022-12-08T05:12:30;4.30;99.90
14014;DHT22;49110;52.584;13.408;2022-12-08T05:13:31;4.20;99.90
14014;DHT22;49110;52.584;13.408;2022-12-08T05:14:31;4.30;99.90
14014;DHT22;49110;52.584;13.408;2022-12-08T05:15:32;4.30;99.90
14014;DHT22;49110;52.584;13.408;2022-12-08T05:16:32;4.20;99.90
14014;DHT22;49110;52.584;13.408;2022-12-08T05:17:33;4.30;99.90
14014;DHT22;49110;52.584;13.408;2022-12-08T05:18:34;4.30;99.90
14014;DHT22;49110;52.584;13.408;2022-12-08T05:19:34;4.30;99.90
14014;DHT22;49110;52.584;13.408;2022-12-08T05:20:35;4.30;99.90
14014;DHT22;49110;52.584;13.408;2022-12-08T05:21:36;4.30;99.90
14014;DHT22;49110;52.584;13.408;2022-12-08T05:22:36;4.40;99.90
14014;DHT22;49110;52.584;13.408;2022-12-08T05:23:37;4.40;99.90
14014;DHT22;49110;52.584;13.408;2022-12-08T05:24:38;4.30;99.90
14014;DHT22;49110;52.584;13.408;2022-12-08T05:25:38;4.30;99.90
14014;DHT22;49110;52.584;13.408;2022-12-08T05:26:39;4.40;99.90
14014;DHT22;49110;52.584;13.408;2022-12-08T05:27:39;4.30;99.90
14014;DHT22;49110;52.584;13.408;2022-12-08T05:28:39;4.30;99.90
14014;DHT22;49110;52.584;13.408;2022-12-08T05:29:40;4.30;99.90
14014;DHT22;49110;52.584;13.408;2022-12-08T05:30:41;4.40;99.90
14014;DHT22;49110;52.584;13.408;2022-12-08T05:31:41;4.40;99.90
14014;DHT22;49110;52.584;13.408;2022-12-08T05:32:42;4.40;99.90
14014;DHT22;49110;52.584;13.408;2022-12-08T05:33:44;4.40;99.90
14014;DHT22;49110;52.584;13.408;2022-12-08T05:34:44;4.40;99.90
14014;DHT22;49110;52.584;13.408;2022-12-08T05:35:45;4.40;99.90
14014;DHT22;49110;52.584;13.408;2022-12-08T05:36:45;4.40;99.90
14014;DHT22;49110;52.584;13.408;2022-12-08T05:37:46;4.40;99.90
14014;DHT22;49110;52.584;13.408;2022-12-08T05:38:47;4.40;99.90
14014;DHT22;49110;52.584;13.408;2022-12-08T05:39:47;4.40;99.90
14014;DHT22;49110;52.584;13.408;2022-12-08T05:40:47;4.40;99.90
14014;DHT22;49110;52.584;13.408;2022-12-08T05:41:48;4.40;99.90
14014;DHT22;49110;52.584;13.408;2022-12-08T05:42:48;4.40;99.90
14014;DHT22;49110;52.584;13.408;2022-12-08T05:43:49;4.40;99.90
14014;DHT22;49110;52.584;13.408;2022-12-08T05:44:50;4.40;99.90
14014;DHT22;49110;52.584;13.408;2022-12-08T05:45:50;4.40;99.90
14014;DHT22;49110;52.584;13.408;2022-12-08T05:46:51;4.40;99.90
14014;DHT22;49110;52.584;13.408;2022-12-08T05:47:52;4.40;99.90
14014;DHT22;49110;52.584;13.408;2022-12-08T05:48:53;4.40;99.90
14014;DHT22;49110;52.584;13.408;2022-12-08T05:49:53;4.40;99.90
14014;DHT22;49110;52.584;13.408;2022-12-08T05:50:54;4.40;99.90
14014;DHT22;49110;52.584;13.408;2022-12-08T05:51:54;4.40;99.90
14014;DHT22;49110;52.584;13.408;2022-12-08T05:52:55;4.40;99.90
14014;DHT22;49110;52.584;13.408;2022-12-08T05:53:56;4.30;99.90
14014;DHT22;49110;52.584;13.408;2022-12-08T05:54:56;4.30;99.90
14014;DHT22;49110;52.584;13.408;2022-12-08T05:55:57;4.30;99.90
14014;DHT22;49110;52.584;13.408;2022-12-08T05:56:57;4.20;99.90
14014;DHT22;49110;52.584;13.408;2022-12-08T05:57:58;4.20;99.90
14014;DHT22;49110;52.584;13.408;2022-12-08T05:58:59;4.20;99.90
14014;DHT22;49110;52.584;13.408;2022-12-08T05:59:59;4.20;99.90
14014;DHT22;49110;52.584;13.408;2022-12-08T06:01:00;4.10;99.90
14014;DHT22;49110;52.584;13.408;2022-12-08T06:02:00;4.10;99.90
14014;DHT22;49110;52.584;13.408;2022-12-08T06:03:01;4.10;99.90
14014;DHT22;49110;52.584;13.408;2022-12-08T06:04:03;4.20;99.90
14014;DHT22;49110;52.584;13.408;2022-12-08T06:05:04;4.20;99.90
14014;DHT22;49110;52.584;13.408;2022-12-08T06:06:04;4.20;99.90
14014;DHT22;49110;52.584;13.408;2022-12-08T06:07:06;4.20;99.90
14014;DHT22;49110;52.584;13.408;2022-12-08T06:08:07;4.20;99.90
14014;DHT22;49110;52.584;13.408;2022-12-08T06:09:08;4.30;99.90
14014;DHT22;49110;52.584;13.408;2022-12-08T06:10:09;4.30;99.90
14014;DHT22;49110;52.584;13.408;2022-12-08T06:11:17;4.40;99.90
14014;DHT22;49110;52.584;13.408;2022-12-08T06:12:18;4.30;99.90
14014;DHT22;49110;52.584;13.408;2022-12-08T06:13:20;4.40;99.90
14014;DHT22;49110;52.584;13.408;2022-12-08T06:14:20;4.40;99.90
14014;DHT22;49110;52.584;13.408;2022-12-08T06:15:21;4.40;99.90
14014;DHT22;49110;52.584;13.408;2022-12-08T06:16:23;4.40;99.90
14014;DHT22;49110;52.584;13.408;2022-12-08T06:17:23;4.40;99.90
14014;DHT22;49110;52.584;13.408;2022-12-08T06:18:24;4.40;99.90
14014;DHT22;49110;52.584;13.408;2022-12-08T06:19:24;4.30;99.90
14014;DHT22;49110;52.584;13.408;2022-12-08T06:20:25;4.30;99.90
14014;DHT22;49110;52.584;13.408;2022-12-08T06:21:25;4.30;99.90
14014;DHT22;49110;52.584;13.408;2022-12-08T06:22:26;4.40;99.90
14014;DHT22;49110;52.584;13.408;2022-12-08T06:23:27;4.40;99.90
14014;DHT22;49110;52.584;13.408;2022-12-08T06:24:28;4.40;99.90
14014;DHT22;49110;52.584;13.408;2022-12-08T06:25:28;4.40;99.90
14014;DHT22;49110;52.584;13.408;2022-12-08T06:26:28;4.40;99.90
14014;DHT22;49110;52.584;13.408;2022-12-08T06:27:29;4.40;99.90
14014;DHT22;49110;52.584;13.408;2022-12-08T06:28:30;4.50;99.90
14014;DHT22;49110;52.584;13.408;2022-12-08T06:29:31;4.50;99.90
14014;DHT22;49110;52.584;13.408;2022-12-08T06:30:31;4.50;99.90
14014;DHT22;49110;52.584;13.408;2022-12-08T06:31:32;4.50;99.90
14014;DHT22;49110;52.584;13.408;2022-12-08T06:32:32;4.40;99.90
14014;DHT22;49110;52.584;13.408;2022-12-08T06:33:33;4.40;99.90
14014;DHT22;49110;52.584;13.408;2022-12-08T06:34:33;4.40;99.90
14014;DHT22;49110;52.584;13.408;2022-12-08T06:35:34;4.40;99.90
14014;DHT22;49110;52.584;13.408;2022-12-08T06:36:34;4.50;99.90
14014;DHT22;49110;52.584;13.408;2022-12-08T06:37:35;4.50;99.90
14014;DHT22;49110;52.584;13.408;2022-12-08T06:38:36;4.50;99.90
14014;DHT22;49110;52.584;13.408;2022-12-08T06:39:36;4.60;99.90
14014;DHT22;49110;52.584;13.408;2022-12-08T06:40:37;4.60;99.90
14014;DHT22;49110;52.584;13.408;2022-12-08T06:41:37;4.60;99.90
14014;DHT22;49110;52.584;13.408;2022-12-08T06:42:58;4.60;99.90
14014;DHT22;49110;52.584;13.408;2022-12-08T06:43:58;4.60;99.90
14014;DHT22;49110;52.584;13.408;2022-12-08T06:44:59;4.60;99.90
14014;DHT22;49110;52.584;13.408;2022-12-08T06:46:00;4.70;99.90
14014;DHT22;49110;52.584;13.408;2022-12-08T06:47:01;4.70;99.90
14014;DHT22;49110;52.584;13.408;2022-12-08T06:48:02;4.60;99.90
14014;DHT22;49110;52.584;13.408;2022-12-08T06:49:02;4.60;99.90
14014;DHT22;49110;52.584;13.408;2022-12-08T06:50:04;4.70;99.90
14014;DHT22;49110;52.584;13.408;2022-12-08T06:51:11;4.60;99.90
14014;DHT22;49110;52.584;13.408;2022-12-08T06:52:12;4.60;99.90
14014;DHT22;49110;52.584;13.408;2022-12-08T06:53:16;4.60;99.90
14014;DHT22;49110;52.584;13.408;2022-12-08T06:54:16;4.70;99.90
14014;DHT22;49110;52.584;13.408;2022-12-08T06:55:17;4.70;99.90